createdAt,value
2017-12-17T00:00:55.986Z,0.00
2017-12-17T00:01:55.965Z,0.00
2017-12-17T00:02:55.961Z,0.00
2017-12-17T00:03:55.950Z,0.00
2017-12-17T00:04:55.941Z,0.00
2017-12-17T00:05:56.559Z,0.00
2017-12-17T00:06:55.925Z,0.00
2017-12-17T00:07:55.913Z,0.00
2017-12-17T00:08:55.903Z,0.00
2017-12-17T00:09:55.916Z,0.00
2017-12-17T00:10:55.882Z,0.00
2017-12-17T00:11:56.552Z,0.00
2017-12-17T00:12:55.860Z,0.00
2017-12-17T00:13:55.867Z,0.00
2017-12-17T00:14:56.554Z,0.00
2017-12-17T00:15:55.837Z,0.00
2017-12-17T00:16:55.825Z,0.00
2017-12-17T00:17:56.559Z,0.00
2017-12-17T00:18:55.803Z,0.00
2017-12-17T00:19:56.562Z,0.00
2017-12-17T00:20:55.783Z,0.00
2017-12-17T00:21:55.790Z,0.00
2017-12-17T00:22:55.765Z,0.00
2017-12-17T00:23:56.559Z,0.00
2017-12-17T00:24:55.740Z,0.00
2017-12-17T00:25:55.727Z,0.00
2017-12-17T00:26:55.718Z,0.00
2017-12-17T00:27:55.765Z,0.00
2017-12-17T00:28:55.699Z,0.00
2017-12-17T00:29:55.694Z,0.00
2017-12-17T00:30:55.694Z,0.00
2017-12-17T00:31:55.672Z,0.00
2017-12-17T00:32:55.652Z,0.00
2017-12-17T00:33:55.652Z,0.00
2017-12-17T00:34:55.655Z,0.00
2017-12-17T00:35:55.635Z,0.00
2017-12-17T00:36:55.622Z,0.00
2017-12-17T00:37:55.611Z,0.00
2017-12-17T00:38:55.600Z,0.00
2017-12-17T00:39:56.564Z,0.00
2017-12-17T00:40:55.578Z,0.00
2017-12-17T00:41:55.569Z,0.00
2017-12-17T00:42:55.560Z,0.00
2017-12-17T00:43:55.549Z,0.00
2017-12-17T00:44:55.536Z,0.00
2017-12-17T00:45:55.529Z,0.00
2017-12-17T00:46:55.519Z,0.00
2017-12-17T00:47:55.527Z,0.00
2017-12-17T00:48:55.512Z,0.00
2017-12-17T00:49:55.488Z,0.00
2017-12-17T00:50:55.482Z,0.00
2017-12-17T00:51:55.472Z,0.00
2017-12-17T00:52:55.462Z,0.00
2017-12-17T00:53:55.469Z,0.00
2017-12-17T00:54:55.443Z,0.00
2017-12-17T00:55:55.428Z,0.00
2017-12-17T00:56:55.408Z,0.00
2017-12-17T00:57:55.408Z,0.00
2017-12-17T00:58:55.398Z,0.00
2017-12-17T00:59:56.064Z,0.00
2017-12-17T01:00:55.383Z,0.00
2017-12-17T01:01:55.373Z,0.00
2017-12-17T01:02:55.371Z,0.00
2017-12-17T01:03:55.354Z,0.00
2017-12-17T01:04:55.344Z,0.00
2017-12-17T01:05:55.330Z,0.00
2017-12-17T01:06:55.319Z,0.00
2017-12-17T01:07:55.307Z,0.00
2017-12-17T01:08:55.298Z,0.00
2017-12-17T01:09:55.280Z,0.00
2017-12-17T01:10:55.289Z,0.00
2017-12-17T01:11:55.272Z,0.00
2017-12-17T01:12:55.261Z,0.00
2017-12-17T01:13:55.299Z,0.00
2017-12-17T01:14:55.242Z,0.00
2017-12-17T01:15:55.236Z,0.00
2017-12-17T01:16:55.222Z,0.00
2017-12-17T01:17:55.211Z,0.00
2017-12-17T01:18:55.202Z,0.00
2017-12-17T01:19:55.193Z,0.00
2017-12-17T01:20:55.180Z,0.00
2017-12-17T01:21:55.171Z,0.00
2017-12-17T01:22:58.075Z,0.00
2017-12-17T01:23:55.145Z,0.00
2017-12-17T01:24:55.140Z,0.00
2017-12-17T01:25:55.126Z,0.00
2017-12-17T01:26:55.115Z,0.00
2017-12-17T01:27:55.107Z,0.00
2017-12-17T01:28:56.078Z,0.00
2017-12-17T01:29:55.089Z,0.00
2017-12-17T01:30:55.074Z,0.00
2017-12-17T01:31:55.065Z,0.00
2017-12-17T01:32:55.059Z,0.00
2017-12-17T01:33:55.048Z,0.00
2017-12-17T01:34:55.038Z,0.00
2017-12-17T01:35:07.033Z,0.00
2017-12-17T01:36:55.018Z,0.00
2017-12-17T01:37:55.004Z,0.00
2017-12-17T01:38:54.996Z,0.00
2017-12-17T01:39:54.986Z,0.00
2017-12-17T01:40:54.972Z,0.00
2017-12-17T01:41:54.968Z,0.00
2017-12-17T01:42:54.955Z,0.00
2017-12-17T01:43:54.947Z,0.00
2017-12-17T01:44:54.954Z,0.00
2017-12-17T01:45:54.923Z,0.00
2017-12-17T01:46:54.924Z,0.00
2017-12-17T01:47:54.901Z,0.00
2017-12-17T01:48:54.896Z,0.00
2017-12-17T01:49:54.887Z,0.00
2017-12-17T01:50:54.879Z,0.00
2017-12-17T01:51:54.858Z,0.00
2017-12-17T01:52:55.592Z,0.00
2017-12-17T01:53:54.841Z,0.00
2017-12-17T01:54:57.585Z,0.00
2017-12-17T01:55:54.818Z,0.00
2017-12-17T01:56:54.807Z,0.00
2017-12-17T01:57:54.798Z,0.00
2017-12-17T01:58:54.799Z,0.00
2017-12-17T01:59:54.782Z,0.00
2017-12-17T02:00:54.827Z,0.00
2017-12-17T02:01:54.761Z,0.00
2017-12-17T02:02:54.751Z,0.00
2017-12-17T02:03:55.586Z,0.00
2017-12-17T02:04:54.726Z,0.00
2017-12-17T02:05:54.717Z,0.00
2017-12-17T02:06:54.708Z,0.00
2017-12-17T02:07:54.701Z,0.00
2017-12-17T02:08:54.708Z,0.00
2017-12-17T02:09:57.587Z,0.00
2017-12-17T02:10:54.686Z,0.00
2017-12-17T02:11:54.661Z,0.00
2017-12-17T02:12:54.647Z,0.00
2017-12-17T02:13:54.638Z,0.00
2017-12-17T02:14:54.645Z,0.00
2017-12-17T02:15:55.587Z,0.00
2017-12-17T02:16:54.604Z,0.00
2017-12-17T02:17:54.591Z,0.00
2017-12-17T02:18:54.583Z,0.00
2017-12-17T02:19:54.578Z,0.00
2017-12-17T02:20:54.563Z,0.00
2017-12-17T02:21:54.572Z,0.00
2017-12-17T02:22:54.543Z,0.00
2017-12-17T02:23:54.536Z,0.00
2017-12-17T02:24:54.521Z,0.00
2017-12-17T02:25:54.533Z,0.00
2017-12-17T02:26:54.505Z,0.00
2017-12-17T02:27:57.096Z,0.00
2017-12-17T02:28:54.486Z,0.00
2017-12-17T02:29:54.476Z,0.00
2017-12-17T02:30:54.467Z,0.00
2017-12-17T02:31:54.447Z,0.00
2017-12-17T02:32:54.444Z,0.00
2017-12-17T02:33:55.096Z,0.00
2017-12-17T02:34:54.428Z,0.00
2017-12-17T02:35:54.404Z,0.00
2017-12-17T02:36:54.399Z,0.00
2017-12-17T02:37:54.391Z,0.00
2017-12-17T02:38:54.395Z,0.00
2017-12-17T02:39:55.103Z,0.00
2017-12-17T02:40:54.362Z,0.00
2017-12-17T02:41:54.353Z,0.00
2017-12-17T02:42:54.344Z,0.00
2017-12-17T02:43:54.330Z,0.00
2017-12-17T02:44:54.321Z,0.00
2017-12-17T02:45:55.101Z,0.00
2017-12-17T02:46:54.297Z,0.00
2017-12-17T02:47:54.286Z,0.00
2017-12-17T02:48:54.282Z,0.00
2017-12-17T02:49:54.264Z,0.00
2017-12-17T02:50:54.258Z,0.00
2017-12-17T02:51:55.098Z,0.00
2017-12-17T02:52:54.238Z,0.00
2017-12-17T02:53:54.225Z,0.00
2017-12-17T02:54:54.215Z,0.00
2017-12-17T02:55:54.208Z,0.00
2017-12-17T02:56:54.211Z,0.00
2017-12-17T02:57:55.111Z,0.00
2017-12-17T02:58:54.175Z,0.00
2017-12-17T02:59:54.178Z,0.00
2017-12-17T03:00:55.106Z,0.00
2017-12-17T03:01:54.145Z,0.00
2017-12-17T03:02:54.135Z,0.00
2017-12-17T03:03:54.124Z,0.00
2017-12-17T03:04:54.112Z,0.00
2017-12-17T03:05:54.103Z,0.00
2017-12-17T03:06:54.092Z,0.00
2017-12-17T03:07:54.085Z,0.00
2017-12-17T03:08:54.073Z,0.00
2017-12-17T03:09:54.064Z,0.00
2017-12-17T03:10:54.057Z,0.00
2017-12-17T03:11:54.042Z,0.00
2017-12-17T03:12:54.049Z,0.00
2017-12-17T03:13:54.019Z,0.00
2017-12-17T03:14:54.013Z,0.00
2017-12-17T03:15:54.002Z,0.00
2017-12-17T03:16:54.000Z,0.00
2017-12-17T03:17:53.978Z,0.00
2017-12-17T03:18:53.968Z,0.00
2017-12-17T03:19:53.960Z,0.00
2017-12-17T03:20:53.967Z,0.00
2017-12-17T03:21:53.939Z,0.00
2017-12-17T03:22:53.930Z,0.00
2017-12-17T03:23:53.921Z,0.00
2017-12-17T03:24:54.615Z,0.00
2017-12-17T03:25:53.898Z,0.00
2017-12-17T03:26:54.617Z,0.00
2017-12-17T03:27:53.875Z,0.00
2017-12-17T03:28:53.862Z,0.00
2017-12-17T03:29:53.853Z,0.00
2017-12-17T03:30:53.852Z,0.00
2017-12-17T03:31:53.834Z,0.00
2017-12-17T03:32:53.825Z,0.00
2017-12-17T03:33:53.811Z,0.00
2017-12-17T03:34:53.802Z,0.00
2017-12-17T03:35:53.800Z,0.00
2017-12-17T03:36:53.791Z,0.00
2017-12-17T03:37:53.774Z,0.00
2017-12-17T03:38:53.765Z,0.00
2017-12-17T03:39:53.758Z,0.00
2017-12-17T03:40:05.752Z,0.00
2017-12-17T03:41:53.735Z,0.00
2017-12-17T03:42:54.624Z,0.00
2017-12-17T03:43:53.708Z,0.00
2017-12-17T03:44:53.705Z,0.00
2017-12-17T03:45:53.690Z,0.00
2017-12-17T03:46:53.676Z,0.00
2017-12-17T03:47:53.666Z,0.00
2017-12-17T03:48:53.658Z,0.00
2017-12-17T03:49:53.647Z,0.00
2017-12-17T03:50:53.639Z,0.00
2017-12-17T03:51:53.625Z,0.00
2017-12-17T03:52:53.614Z,0.00
2017-12-17T03:53:54.126Z,0.00
2017-12-17T03:54:53.600Z,0.00
2017-12-17T03:55:53.592Z,0.00
2017-12-17T03:56:53.579Z,0.00
2017-12-17T03:57:53.567Z,0.00
2017-12-17T03:58:54.132Z,0.00
2017-12-17T03:59:53.546Z,0.00
2017-12-17T04:00:53.536Z,0.00
2017-12-17T04:01:53.522Z,0.00
2017-12-17T04:02:53.516Z,0.00
2017-12-17T04:03:54.119Z,0.00
2017-12-17T04:04:53.489Z,0.00
2017-12-17T04:05:53.481Z,0.00
2017-12-17T04:06:53.474Z,0.00
2017-12-17T04:07:53.470Z,0.00
2017-12-17T04:08:53.456Z,0.00
2017-12-17T04:09:53.444Z,0.00
2017-12-17T04:10:53.435Z,0.00
2017-12-17T04:11:53.419Z,0.00
2017-12-17T04:12:53.410Z,0.00
2017-12-17T04:13:53.399Z,0.00
2017-12-17T04:14:53.410Z,0.00
2017-12-17T04:15:53.379Z,0.00
2017-12-17T04:16:53.374Z,0.00
2017-12-17T04:17:53.358Z,0.00
2017-12-17T04:18:53.353Z,0.00
2017-12-17T04:19:56.128Z,0.00
2017-12-17T04:20:53.331Z,0.00
2017-12-17T04:21:53.312Z,0.00
2017-12-17T04:22:53.314Z,0.00
2017-12-17T04:23:53.299Z,0.00
2017-12-17T04:24:53.287Z,0.00
2017-12-17T04:25:53.276Z,0.00
2017-12-17T04:26:53.266Z,0.00
2017-12-17T04:27:53.247Z,0.00
2017-12-17T04:28:53.242Z,0.00
2017-12-17T04:29:53.234Z,0.00
2017-12-17T04:30:53.236Z,0.00
2017-12-17T04:31:56.132Z,0.00
2017-12-17T04:32:53.208Z,0.00
2017-12-17T04:33:53.196Z,0.00
2017-12-17T04:34:54.156Z,0.00
2017-12-17T04:35:53.177Z,0.00
2017-12-17T04:36:53.171Z,0.00
2017-12-17T04:38:00.139Z,0.00
2017-12-17T04:38:53.148Z,0.00
2017-12-17T04:39:53.128Z,0.00
2017-12-17T04:40:53.125Z,0.00
2017-12-17T04:41:53.140Z,0.00
2017-12-17T04:42:53.636Z,0.00
2017-12-17T04:43:53.634Z,0.00
2017-12-17T04:44:53.082Z,0.00
2017-12-17T04:45:53.071Z,0.00
2017-12-17T04:46:53.066Z,0.00
2017-12-17T04:47:53.052Z,0.00
2017-12-17T04:48:55.639Z,0.00
2017-12-17T04:49:53.034Z,0.00
2017-12-17T04:50:53.027Z,0.00
2017-12-17T04:51:53.015Z,0.00
2017-12-17T04:52:53.005Z,0.00
2017-12-17T04:53:52.990Z,0.00
2017-12-17T04:54:52.996Z,0.00
2017-12-17T04:55:52.989Z,0.00
2017-12-17T04:56:07.637Z,0.00
2017-12-17T04:57:52.954Z,0.00
2017-12-17T04:58:52.945Z,0.00
2017-12-17T04:59:52.930Z,0.00
2017-12-17T05:00:53.644Z,0.00
2017-12-17T05:01:52.912Z,0.00
2017-12-17T05:02:52.900Z,0.00
2017-12-17T05:03:52.886Z,0.00
2017-12-17T05:04:52.877Z,0.00
2017-12-17T05:05:53.650Z,0.00
2017-12-17T05:06:53.648Z,0.00
2017-12-17T05:07:52.848Z,0.00
2017-12-17T05:08:52.837Z,0.00
2017-12-17T05:09:52.831Z,0.00
2017-12-17T05:10:52.850Z,0.00
2017-12-17T05:11:52.803Z,0.00
2017-12-17T05:12:52.793Z,0.00
2017-12-17T05:13:52.784Z,0.00
2017-12-17T05:14:53.647Z,0.00
2017-12-17T05:15:52.769Z,0.00
2017-12-17T05:16:52.755Z,0.00
2017-12-17T05:17:52.746Z,0.00
2017-12-17T05:18:53.648Z,0.00
2017-12-17T05:19:52.719Z,0.00
2017-12-17T05:20:52.726Z,0.00
2017-12-17T05:21:52.714Z,0.00
2017-12-17T05:22:52.689Z,0.00
2017-12-17T05:23:52.678Z,0.00
2017-12-17T05:24:52.666Z,0.00
2017-12-17T05:25:52.656Z,0.00
2017-12-17T05:26:52.648Z,0.00
2017-12-17T05:27:52.636Z,0.00
2017-12-17T05:28:52.632Z,0.00
2017-12-17T05:29:53.151Z,0.00
2017-12-17T05:30:52.610Z,0.00
2017-12-17T05:31:52.600Z,0.00
2017-12-17T05:32:52.588Z,0.00
2017-12-17T05:33:52.576Z,0.00
2017-12-17T05:34:52.567Z,0.00
2017-12-17T05:35:53.151Z,0.00
2017-12-17T05:36:52.542Z,0.00
2017-12-17T05:37:52.531Z,0.00
2017-12-17T05:38:52.525Z,0.00
2017-12-17T05:39:52.510Z,0.00
2017-12-17T05:40:52.493Z,0.00
2017-12-17T05:41:53.153Z,0.00
2017-12-17T05:42:52.480Z,0.00
2017-12-17T05:43:52.466Z,0.00
2017-12-17T05:44:52.461Z,0.00
2017-12-17T05:45:52.445Z,0.00
2017-12-17T05:46:52.441Z,0.00
2017-12-17T05:47:53.168Z,0.00
2017-12-17T05:48:52.418Z,0.00
2017-12-17T05:49:52.403Z,0.00
2017-12-17T05:50:52.393Z,0.00
2017-12-17T05:51:52.386Z,0.00
2017-12-17T05:52:52.381Z,0.00
2017-12-17T05:53:52.371Z,0.00
2017-12-17T05:54:52.353Z,0.00
2017-12-17T05:55:52.395Z,0.00
2017-12-17T05:56:52.334Z,0.00
2017-12-17T05:57:52.318Z,0.00
2017-12-17T05:58:52.323Z,0.00
2017-12-17T05:59:52.305Z,0.00
2017-12-17T06:00:52.294Z,0.00
2017-12-17T06:01:52.280Z,0.00
2017-12-17T06:02:52.288Z,0.00
2017-12-17T06:03:52.266Z,0.00
2017-12-17T06:04:52.255Z,0.00
2017-12-17T06:05:52.246Z,0.00
2017-12-17T06:06:52.236Z,0.00
2017-12-17T06:07:52.220Z,0.00
2017-12-17T06:08:53.163Z,0.00
2017-12-17T06:09:52.203Z,0.00
2017-12-17T06:10:53.161Z,0.00
2017-12-17T06:11:52.173Z,0.00
2017-12-17T06:12:52.166Z,0.00
2017-12-17T06:13:52.151Z,0.00
2017-12-17T06:14:52.669Z,0.00
2017-12-17T06:15:52.662Z,0.00
2017-12-17T06:16:52.654Z,0.00
2017-12-17T06:17:52.114Z,0.00
2017-12-17T06:18:52.101Z,0.00
2017-12-17T06:19:52.089Z,0.00
2017-12-17T06:20:54.658Z,0.00
2017-12-17T06:21:52.072Z,0.00
2017-12-17T06:22:52.072Z,0.00
2017-12-17T06:23:52.067Z,0.00
2017-12-17T06:24:52.050Z,0.00
2017-12-17T06:25:52.028Z,0.00
2017-12-17T06:26:52.029Z,0.00
2017-12-17T06:27:52.014Z,0.00
2017-12-17T06:28:52.668Z,0.00
2017-12-17T06:29:51.991Z,0.00
2017-12-17T06:30:51.984Z,0.00
2017-12-17T06:31:51.970Z,0.00
2017-12-17T06:32:52.668Z,0.00
2017-12-17T06:33:51.955Z,0.00
2017-12-17T06:34:52.669Z,0.00
2017-12-17T06:35:51.935Z,0.00
2017-12-17T06:36:51.917Z,0.00
2017-12-17T06:37:51.909Z,0.00
2017-12-17T06:38:51.896Z,0.00
2017-12-17T06:39:51.896Z,0.00
2017-12-17T06:40:51.883Z,0.00
2017-12-17T06:41:51.871Z,0.00
2017-12-17T06:42:51.865Z,0.00
2017-12-17T06:43:51.853Z,0.00
2017-12-17T06:44:51.837Z,0.00
2017-12-17T06:45:52.680Z,0.00
2017-12-17T06:46:51.820Z,0.00
2017-12-17T06:47:51.801Z,0.00
2017-12-17T06:48:51.800Z,0.00
2017-12-17T06:49:51.783Z,0.00
2017-12-17T06:50:51.779Z,0.00
2017-12-17T06:51:51.769Z,0.00
2017-12-17T06:52:51.742Z,0.00
2017-12-17T06:53:51.742Z,0.00
2017-12-17T06:54:51.733Z,0.00
2017-12-17T06:55:54.675Z,0.00
2017-12-17T06:56:51.718Z,0.00
2017-12-17T06:57:51.702Z,0.00
2017-12-17T06:58:51.697Z,0.00
2017-12-17T06:59:51.684Z,0.00
2017-12-17T07:00:51.675Z,0.00
2017-12-17T07:01:51.658Z,0.00
2017-12-17T07:02:51.653Z,0.00
2017-12-17T07:03:51.642Z,0.00
2017-12-17T07:04:51.631Z,0.00
2017-12-17T07:05:51.619Z,0.00
2017-12-17T07:06:51.612Z,0.00
2017-12-17T07:07:51.600Z,0.00
2017-12-17T07:08:51.590Z,0.00
2017-12-17T07:09:51.578Z,0.00
2017-12-17T07:10:51.569Z,0.00
2017-12-17T07:11:51.563Z,0.00
2017-12-17T07:12:51.558Z,0.00
2017-12-17T07:13:51.579Z,0.00
2017-12-17T07:14:51.534Z,0.00
2017-12-17T07:15:52.185Z,0.00
2017-12-17T07:16:51.511Z,0.00
2017-12-17T07:17:51.500Z,0.00
2017-12-17T07:18:51.492Z,0.00
2017-12-17T07:19:51.477Z,0.00
2017-12-17T07:20:51.468Z,0.00
2017-12-17T07:21:52.195Z,0.00
2017-12-17T07:22:51.447Z,0.00
2017-12-17T07:23:51.444Z,0.00
2017-12-17T07:24:51.425Z,0.00
2017-12-17T07:25:51.423Z,0.00
2017-12-17T07:26:51.410Z,0.00
2017-12-17T07:27:51.397Z,0.00
2017-12-17T07:28:51.391Z,0.00
2017-12-17T07:29:51.381Z,0.00
2017-12-17T07:30:51.368Z,0.00
2017-12-17T07:31:51.359Z,0.00
2017-12-17T07:32:51.363Z,0.00
2017-12-17T07:33:51.333Z,0.00
2017-12-17T07:34:51.327Z,0.00
2017-12-17T07:35:51.315Z,0.00
2017-12-17T07:36:51.302Z,0.00
2017-12-17T07:37:51.293Z,0.00
2017-12-17T07:38:51.285Z,0.00
2017-12-17T07:39:51.273Z,0.00
2017-12-17T07:40:51.261Z,0.00
2017-12-17T07:41:51.260Z,5.63
2017-12-17T07:42:51.243Z,5.63
2017-12-17T07:43:51.234Z,5.63
2017-12-17T07:44:51.220Z,5.63
2017-12-17T07:45:52.199Z,5.63
2017-12-17T07:46:51.204Z,5.63
2017-12-17T07:47:51.196Z,5.63
2017-12-17T07:48:51.185Z,5.63
2017-12-17T07:49:51.167Z,5.63
2017-12-17T07:50:51.170Z,5.63
2017-12-17T07:51:51.157Z,5.63
2017-12-17T07:52:51.145Z,5.63
2017-12-17T07:53:51.135Z,5.63
2017-12-17T07:54:51.120Z,11.25
2017-12-17T07:55:51.174Z,11.25
2017-12-17T07:56:51.105Z,11.25
2017-12-17T07:57:51.110Z,11.25
2017-12-17T07:58:51.080Z,11.25
2017-12-17T07:59:51.073Z,11.25
2017-12-17T08:00:51.693Z,11.25
2017-12-17T08:01:51.059Z,11.25
2017-12-17T08:02:51.044Z,11.25
2017-12-17T08:03:51.042Z,11.25
2017-12-17T08:04:51.021Z,16.88
2017-12-17T08:05:51.051Z,11.25
2017-12-17T08:06:51.001Z,11.25
2017-12-17T08:07:50.986Z,11.25
2017-12-17T08:08:50.992Z,11.25
2017-12-17T08:09:50.969Z,11.25
2017-12-17T08:10:50.960Z,11.25
2017-12-17T08:11:50.944Z,11.25
2017-12-17T08:12:50.940Z,11.25
2017-12-17T08:13:50.927Z,11.25
2017-12-17T08:14:51.704Z,11.25
2017-12-17T08:15:50.912Z,11.25
2017-12-17T08:16:50.898Z,16.88
2017-12-17T08:17:50.891Z,16.88
2017-12-17T08:18:50.883Z,16.88
2017-12-17T08:19:50.873Z,16.88
2017-12-17T08:20:51.703Z,22.50
2017-12-17T08:21:50.850Z,22.50
2017-12-17T08:22:50.836Z,28.13
2017-12-17T08:23:50.825Z,28.13
2017-12-17T08:24:50.818Z,28.13
2017-12-17T08:25:50.813Z,28.13
2017-12-17T08:26:50.800Z,28.13
2017-12-17T08:27:50.793Z,28.13
2017-12-17T08:28:50.785Z,28.13
2017-12-17T08:29:50.772Z,22.50
2017-12-17T08:30:50.765Z,22.50
2017-12-17T08:31:50.743Z,22.50
2017-12-17T08:32:51.705Z,16.88
2017-12-17T08:33:50.729Z,16.88
2017-12-17T08:34:51.696Z,16.88
2017-12-17T08:35:50.706Z,16.88
2017-12-17T08:36:50.698Z,16.88
2017-12-17T08:37:50.687Z,16.88
2017-12-17T08:38:50.684Z,16.88
2017-12-17T08:39:50.671Z,11.25
2017-12-17T08:40:50.657Z,16.88
2017-12-17T08:41:50.653Z,16.88
2017-12-17T08:42:50.650Z,16.88
2017-12-17T08:43:50.631Z,22.50
2017-12-17T08:44:50.622Z,22.50
2017-12-17T08:45:50.612Z,28.13
2017-12-17T08:46:50.602Z,28.13
2017-12-17T08:47:50.587Z,22.50
2017-12-17T08:48:50.578Z,22.50
2017-12-17T08:49:50.576Z,16.88
2017-12-17T08:50:50.570Z,16.88
2017-12-17T08:51:50.548Z,16.88
2017-12-17T08:52:50.539Z,16.88
2017-12-17T08:53:51.213Z,11.25
2017-12-17T08:54:50.517Z,11.25
2017-12-17T08:55:50.513Z,11.25
2017-12-17T08:56:50.502Z,11.25
2017-12-17T08:57:50.495Z,11.25
2017-12-17T08:58:50.536Z,16.88
2017-12-17T08:59:50.510Z,16.88
2017-12-17T09:00:50.463Z,16.88
2017-12-17T09:01:50.444Z,11.25
2017-12-17T09:02:50.445Z,16.88
2017-12-17T09:03:50.441Z,16.88
2017-12-17T09:04:50.420Z,16.88
2017-12-17T09:05:51.212Z,16.88
2017-12-17T09:06:50.401Z,16.88
2017-12-17T09:07:50.392Z,22.50
2017-12-17T09:08:51.214Z,22.50
2017-12-17T09:09:50.370Z,22.50
2017-12-17T09:10:50.362Z,28.13
2017-12-17T09:11:50.351Z,28.13
2017-12-17T09:12:50.344Z,28.13
2017-12-17T09:13:50.336Z,33.75
2017-12-17T09:14:50.338Z,33.75
2017-12-17T09:15:50.304Z,33.75
2017-12-17T09:16:50.302Z,33.75
2017-12-17T09:17:50.315Z,33.75
2017-12-17T09:18:50.328Z,33.75
2017-12-17T09:19:50.283Z,39.38
2017-12-17T09:20:53.219Z,39.38
2017-12-17T09:21:50.252Z,39.38
2017-12-17T09:22:50.244Z,33.75
2017-12-17T09:23:50.230Z,39.38
2017-12-17T09:24:50.222Z,45.00
2017-12-17T09:25:50.213Z,45.00
2017-12-17T09:26:56.722Z,45.00
2017-12-17T09:27:50.194Z,45.00
2017-12-17T09:28:50.185Z,39.38
2017-12-17T09:29:50.176Z,45.00
2017-12-17T09:30:50.724Z,50.63
2017-12-17T09:31:50.165Z,56.25
2017-12-17T09:32:50.147Z,50.63
2017-12-17T09:33:50.136Z,50.63
2017-12-17T09:34:50.134Z,50.63
2017-12-17T09:35:50.117Z,56.25
2017-12-17T09:36:50.725Z,61.88
2017-12-17T09:37:50.100Z,67.50
2017-12-17T09:38:50.731Z,67.50
2017-12-17T09:39:50.098Z,73.13
2017-12-17T09:40:50.063Z,78.75
2017-12-17T09:41:50.053Z,67.50
2017-12-17T09:42:50.051Z,73.13
2017-12-17T09:43:50.055Z,73.13
2017-12-17T09:44:50.716Z,61.88
2017-12-17T09:45:50.019Z,61.88
2017-12-17T09:46:50.012Z,56.25
2017-12-17T09:47:49.997Z,56.25
2017-12-17T09:48:49.993Z,61.88
2017-12-17T09:49:49.984Z,61.88
2017-12-17T09:50:49.971Z,56.25
2017-12-17T09:51:49.965Z,61.88
2017-12-17T09:52:49.957Z,61.88
2017-12-17T09:53:49.943Z,67.50
2017-12-17T09:54:49.937Z,67.50
2017-12-17T09:55:49.928Z,73.13
2017-12-17T09:56:49.920Z,61.88
2017-12-17T09:57:49.914Z,56.25
2017-12-17T09:58:49.900Z,61.88
2017-12-17T09:59:49.884Z,61.88
2017-12-17T10:00:49.876Z,67.50
2017-12-17T10:01:49.868Z,73.13
2017-12-17T10:02:49.858Z,67.50
2017-12-17T10:03:49.841Z,73.13
2017-12-17T10:04:49.840Z,67.50
2017-12-17T10:05:49.856Z,56.25
2017-12-17T10:06:49.821Z,50.63
2017-12-17T10:07:50.736Z,39.38
2017-12-17T10:08:49.808Z,33.75
2017-12-17T10:09:50.251Z,28.13
2017-12-17T10:10:49.794Z,28.13
2017-12-17T10:11:49.780Z,28.13
2017-12-17T10:12:49.768Z,28.13
2017-12-17T10:13:49.815Z,28.13
2017-12-17T10:14:49.762Z,28.13
2017-12-17T10:15:49.737Z,33.75
2017-12-17T10:16:49.737Z,39.38
2017-12-17T10:17:49.723Z,45.00
2017-12-17T10:18:49.712Z,45.00
2017-12-17T10:19:49.693Z,45.00
2017-12-17T10:20:49.683Z,39.38
2017-12-17T10:21:49.686Z,45.00
2017-12-17T10:22:51.525Z,45.00
2017-12-17T10:23:49.667Z,45.00
2017-12-17T10:24:49.674Z,50.63
2017-12-17T10:25:49.645Z,50.63
2017-12-17T10:26:49.635Z,56.25
2017-12-17T10:27:49.631Z,50.63
2017-12-17T10:28:49.631Z,56.25
2017-12-17T10:29:49.627Z,61.88
2017-12-17T10:30:49.605Z,61.88
2017-12-17T10:31:49.596Z,67.50
2017-12-17T10:32:49.879Z,67.50
2017-12-17T10:33:49.846Z,61.88
2017-12-17T10:34:49.624Z,61.88
2017-12-17T10:35:49.563Z,67.50
2017-12-17T10:36:49.554Z,73.13
2017-12-17T10:37:49.540Z,78.75
2017-12-17T10:38:49.566Z,73.13
2017-12-17T10:39:49.672Z,73.13
2017-12-17T10:40:49.507Z,73.13
2017-12-17T10:41:49.900Z,73.13
2017-12-17T10:42:49.493Z,84.38
2017-12-17T10:43:49.486Z,95.63
2017-12-17T10:44:49.468Z,95.63
2017-12-17T10:45:50.005Z,90.00
2017-12-17T10:46:50.065Z,90.00
2017-12-17T10:47:49.457Z,90.00
2017-12-17T10:48:51.436Z,84.38
2017-12-17T10:49:49.434Z,90.00
2017-12-17T10:50:49.430Z,90.00
2017-12-17T10:51:49.416Z,84.38
2017-12-17T10:52:49.664Z,84.38
2017-12-17T10:53:49.399Z,90.00
2017-12-17T10:54:50.052Z,84.38
2017-12-17T10:55:49.370Z,84.38
2017-12-17T10:56:49.367Z,78.75
2017-12-17T10:57:49.372Z,84.38
2017-12-17T10:58:49.376Z,95.63
2017-12-17T10:59:49.381Z,95.63
2017-12-17T11:00:49.377Z,90.00
2017-12-17T11:01:49.380Z,90.00
2017-12-17T11:02:49.322Z,95.63
2017-12-17T11:03:49.318Z,106.88
2017-12-17T11:04:49.306Z,101.25
2017-12-17T11:05:49.295Z,90.00
2017-12-17T11:06:49.285Z,95.63
2017-12-17T11:07:50.260Z,112.50
2017-12-17T11:08:49.269Z,129.38
2017-12-17T11:09:49.262Z,140.63
2017-12-17T11:10:49.252Z,151.88
2017-12-17T11:11:49.241Z,157.50
2017-12-17T11:12:49.231Z,157.50
2017-12-17T11:13:49.223Z,157.50
2017-12-17T11:14:49.212Z,135.00
2017-12-17T11:15:49.205Z,106.88
2017-12-17T11:16:49.228Z,106.88
2017-12-17T11:17:49.185Z,112.50
2017-12-17T11:18:49.183Z,112.50
2017-12-17T11:19:49.177Z,95.63
2017-12-17T11:20:49.761Z,84.38
2017-12-17T11:21:49.162Z,78.75
2017-12-17T11:22:49.155Z,67.50
2017-12-17T11:23:49.139Z,73.13
2017-12-17T11:24:01.145Z,73.13
2017-12-17T11:25:49.134Z,61.88
2017-12-17T11:26:49.120Z,56.25
2017-12-17T11:27:49.108Z,50.63
2017-12-17T11:28:49.097Z,45.00
2017-12-17T11:29:52.402Z,50.63
2017-12-17T11:30:49.080Z,45.00
2017-12-17T11:31:49.071Z,39.38
2017-12-17T11:32:49.067Z,33.75
2017-12-17T11:33:49.059Z,28.13
2017-12-17T11:34:49.762Z,28.13
2017-12-17T11:35:49.041Z,33.75
2017-12-17T11:36:49.032Z,39.38
2017-12-17T11:37:49.024Z,39.38
2017-12-17T11:38:49.006Z,33.75
2017-12-17T11:39:49.762Z,33.75
2017-12-17T11:40:49.249Z,39.38
2017-12-17T11:41:48.987Z,45.00
2017-12-17T11:42:49.782Z,56.25
2017-12-17T11:43:48.976Z,61.88
2017-12-17T11:44:48.962Z,67.50
2017-12-17T11:45:48.956Z,73.13
2017-12-17T11:46:48.945Z,78.75
2017-12-17T11:47:48.937Z,78.75
2017-12-17T11:48:48.929Z,90.00
2017-12-17T11:49:48.916Z,90.00
2017-12-17T11:50:48.910Z,95.63
2017-12-17T11:51:55.768Z,84.38
2017-12-17T11:52:48.889Z,78.75
2017-12-17T11:53:48.880Z,78.75
2017-12-17T11:54:48.873Z,84.38
2017-12-17T11:55:48.863Z,73.13
2017-12-17T11:56:48.913Z,73.13
2017-12-17T11:57:48.844Z,67.50
2017-12-17T11:58:48.835Z,73.13
2017-12-17T11:59:49.774Z,73.13
2017-12-17T12:00:48.822Z,73.13
2017-12-17T12:01:48.813Z,73.13
2017-12-17T12:02:48.804Z,73.13
2017-12-17T12:03:48.794Z,61.88
2017-12-17T12:04:48.786Z,56.25
2017-12-17T12:05:48.784Z,50.63
2017-12-17T12:06:48.767Z,45.00
2017-12-17T12:07:48.757Z,39.38
2017-12-17T12:08:48.749Z,33.75
2017-12-17T12:09:48.734Z,33.75
2017-12-17T12:10:48.734Z,39.38
2017-12-17T12:11:48.721Z,39.38
2017-12-17T12:12:49.268Z,45.00
2017-12-17T12:13:48.722Z,50.63
2017-12-17T12:14:48.697Z,50.63
2017-12-17T12:15:48.685Z,56.25
2017-12-17T12:16:48.726Z,56.25
2017-12-17T12:17:48.670Z,56.25
2017-12-17T12:18:48.666Z,61.88
2017-12-17T12:19:48.656Z,73.13
2017-12-17T12:20:48.649Z,78.75
2017-12-17T12:21:48.652Z,84.38
2017-12-17T12:22:48.631Z,73.13
2017-12-17T12:23:48.611Z,61.88
2017-12-17T12:24:49.285Z,61.88
2017-12-17T12:25:48.599Z,67.50
2017-12-17T12:26:48.588Z,61.88
2017-12-17T12:27:48.578Z,56.25
2017-12-17T12:28:48.570Z,67.50
2017-12-17T12:29:48.560Z,56.25
2017-12-17T12:30:48.552Z,45.00
2017-12-17T12:31:49.279Z,45.00
2017-12-17T12:32:48.536Z,50.63
2017-12-17T12:33:48.529Z,56.25
2017-12-17T12:34:48.534Z,61.88
2017-12-17T12:35:48.515Z,73.13
2017-12-17T12:36:48.504Z,78.75
2017-12-17T12:37:49.289Z,84.38
2017-12-17T12:38:48.485Z,90.00
2017-12-17T12:39:48.475Z,90.00
2017-12-17T12:40:48.464Z,90.00
2017-12-17T12:41:48.456Z,90.00
2017-12-17T12:42:48.450Z,95.63
2017-12-17T12:43:49.291Z,90.00
2017-12-17T12:44:48.445Z,90.00
2017-12-17T12:45:48.426Z,84.38
2017-12-17T12:46:48.414Z,84.38
2017-12-17T12:47:48.404Z,73.13
2017-12-17T12:48:48.390Z,67.50
2017-12-17T12:49:48.387Z,61.88
2017-12-17T12:50:48.387Z,56.25
2017-12-17T12:51:49.292Z,50.63
2017-12-17T12:52:48.362Z,45.00
2017-12-17T12:53:48.355Z,39.38
2017-12-17T12:54:48.346Z,39.38
2017-12-17T12:55:48.344Z,39.38
2017-12-17T12:56:48.325Z,33.75
2017-12-17T12:57:48.333Z,33.75
2017-12-17T12:58:48.314Z,39.38
2017-12-17T12:59:48.311Z,50.63
2017-12-17T13:00:48.305Z,50.63
2017-12-17T13:01:48.290Z,50.63
2017-12-17T13:02:48.286Z,45.00
2017-12-17T13:03:48.280Z,39.38
2017-12-17T13:04:48.258Z,39.38
2017-12-17T13:05:48.257Z,45.00
2017-12-17T13:06:48.248Z,50.63
2017-12-17T13:07:48.232Z,50.63